WSSLWMKM

Guest
Details From WSSL - Seletar
To WMKM - Malacca
Flight Number -
Tags generated
Created
Modified
Stats Distance 110 nm / 203 km
Max Altitude 3,700 ft / 1,128 m
Waypoints 3
Social Downloads 0
Likes 0
Share VATSIM

Download

Looking for another format? Having issues loading an existing format? Contact us
Advertisement - Login to hide

Notes

Basic altitude profile: - Ascent Rate: 2500ft/min - Ascent Speed: 250kts - Cruise Altitude: 35000ft - Cruise Speed: 420kts - Descent Rate: 1500ft/min - Descent Speed: 250kts

Route

WSSL JB WMKM

ID Type Via Altitude Latitude Longitude Leg Dist Tot Dist Heading (true) Name
O WSSL APT - 0 ft / 0 m 1.41643˚ 103.86730˚ - 0 nm - Seletar
JB NDB - 3,700 ft / 1,128 m 1.49994˚ 103.71162˚ 10 nm 10 nm 298° / 298° -
O WMKM APT - 0 ft / 0 m 2.26336˚ 102.25155˚ 98 nm 109 nm 298° / 298° Malacca

Altitude Profile

Advertisement - Login to hide

WSSL

Details ICAO WSSL (XSP)
Name Seletar
Region Singapore
Timezone Asia/Singapore (UTC+8.0)
Stats Elevation 36 ft / 11 m (AMSL)
Location 1.416427° 103.867299°
Runways 1
Magnetic Variation 0.216° E

METAR

Not found

TAF

TAF AMD WSSL 280100Z 2801/2906 25007KT 9999 FEW018CB SCT020 TEMPO 2801/2805 3000 TSRA FEW012CB BKN015

Decode

Departure Runways

ID Width Length Bearing (true) Bearing (mag) Surface Threshold Offset Overrun Length
03 151 ft / 46 m 5,243 ft / 1,598 m 33.15° 32.93° Asphalt 0 ft / 0 m 197 ft / 60 m
21 151 ft / 46 m 5,243 ft / 1,598 m 213.15° 212.93° Asphalt 0 ft / 0 m 197 ft / 60 m

WMKM

Details ICAO WMKM (MKZ)
Name Malacca
Region Malaysia (Peninsular Malaysia)
Timezone Asia/Kuala_Lumpur (UTC+8.0)
Stats Elevation 35 ft / 11 m (AMSL)
Location 2.263362° 102.251553°
Runways 1
Magnetic Variation 0.066° E

METAR

Not found

TAF

TAF AMD WMKM 272132Z 2721/2818 05005KT 9999 FEW017CB TEMPO 2722/2802 17007KT 3000 TSRA FEW015CB SCT018

Decode

Destination Runways

ID Width Length Bearing (true) Bearing (mag) Surface Threshold Offset Overrun Length
03 121 ft / 37 m 4,523 ft / 1,379 m 29.93° 29.86° Asphalt 0 ft / 0 m 200 ft / 61 m
21 121 ft / 37 m 4,523 ft / 1,379 m 209.93° 209.86° Asphalt 0 ft / 0 m 200 ft / 61 m

Popular Alternatives